createdAt,value
2023-03-29T00:02:49.429Z,5.50
2023-03-29T00:05:57.745Z,5.00
2023-03-29T00:09:21.925Z,5.50
2023-03-29T00:12:27.183Z,8.00
2023-03-29T00:15:31.655Z,12.50
2023-03-29T00:18:38.649Z,7.00
2023-03-29T00:21:44.775Z,13.75
2023-03-29T00:24:57.724Z,20.50
2023-03-29T00:28:02.640Z,7.50
2023-03-29T00:31:09.357Z,15.25
2023-03-29T00:34:16.599Z,14.75
2023-03-29T00:37:27.217Z,6.50
2023-03-29T00:40:36.372Z,10.00
2023-03-29T00:43:56.057Z,11.25
2023-03-29T00:47:00.938Z,7.00
2023-03-29T00:50:14.690Z,4.50
2023-03-29T00:53:23.140Z,8.25
2023-03-29T00:56:37.629Z,17.00
2023-03-29T00:59:44.614Z,12.50
2023-03-29T01:02:54.981Z,11.00
2023-03-29T01:06:04.213Z,18.50
2023-03-29T01:09:13.225Z,10.75
2023-03-29T01:12:22.528Z,10.00
2023-03-29T01:15:30.815Z,26.75
2023-03-29T01:18:37.769Z,41.75
2023-03-29T01:21:49.647Z,33.00
2023-03-29T01:25:07.977Z,19.50
2023-03-29T01:28:20.816Z,20.25
2023-03-29T01:31:29.109Z,49.50
2023-03-29T01:34:40.593Z,25.00
2023-03-29T01:37:53.127Z,18.25
2023-03-29T01:40:58.939Z,22.50
2023-03-29T01:44:10.473Z,17.75
2023-03-29T01:47:25.455Z,48.75
2023-03-29T01:50:39.949Z,35.25
2023-03-29T01:53:50.918Z,23.00
2023-03-29T01:56:58.270Z,23.00
2023-03-29T02:00:11.322Z,39.00
2023-03-29T02:03:22.114Z,17.00
2023-03-29T02:06:29.736Z,24.25
2023-03-29T02:09:38.069Z,20.00
2023-03-29T02:12:42.788Z,29.50
2023-03-29T02:15:50.531Z,23.75
2023-03-29T02:18:58.236Z,23.00
2023-03-29T02:22:06.784Z,23.00
2023-03-29T02:25:13.945Z,26.75
2023-03-29T02:28:19.031Z,27.00
2023-03-29T02:31:29.815Z,26.50
2023-03-29T02:34:40.304Z,15.75
2023-03-29T02:37:49.676Z,19.75
2023-03-29T02:40:55.962Z,18.75
2023-03-29T02:44:05.206Z,23.00
2023-03-29T02:47:18.628Z,26.25
2023-03-29T02:50:25.035Z,26.25
2023-03-29T02:53:35.083Z,22.50
2023-03-29T02:56:48.508Z,16.50
2023-03-29T02:59:54.345Z,13.25
2023-03-29T03:03:02.107Z,17.50
2023-03-29T03:06:10.710Z,17.25
2023-03-29T03:09:15.756Z,17.25
2023-03-29T03:12:23.239Z,14.00
2023-03-29T03:15:28.316Z,11.50
2023-03-29T03:18:35.713Z,22.50
2023-03-29T03:21:40.300Z,28.50
2023-03-29T03:24:48.161Z,21.00
2023-03-29T03:27:55.590Z,38.50
2023-03-29T03:31:01.532Z,32.50
2023-03-29T03:34:26.797Z,25.50
2023-03-29T03:37:36.025Z,45.25
2023-03-29T03:40:44.460Z,48.75
2023-03-29T03:43:50.181Z,21.75
2023-03-29T03:46:55.253Z,23.75
2023-03-29T03:50:00.602Z,25.75
2023-03-29T03:53:05.723Z,14.50
2023-03-29T03:56:32.409Z,18.00
2023-03-29T03:59:49.261Z,42.00
2023-03-29T04:03:02.564Z,44.25
2023-03-29T04:06:10.402Z,38.50
2023-03-29T04:09:46.073Z,44.00
2023-03-29T04:13:04.765Z,82.50
2023-03-29T04:16:13.143Z,100.00
2023-03-29T04:19:21.988Z,60.50
2023-03-29T04:22:28.137Z,54.00
2023-03-29T04:25:32.643Z,46.50
2023-03-29T04:28:39.099Z,49.00
2023-03-29T04:31:58.038Z,60.50
2023-03-29T04:35:27.373Z,65.00
2023-03-29T04:38:36.326Z,56.75
2023-03-29T04:41:41.660Z,37.50
2023-03-29T04:44:57.659Z,84.67
2023-03-29T04:48:17.274Z,91.00
2023-03-29T04:51:24.830Z,61.25
2023-03-29T04:54:32.501Z,21.50
2023-03-29T04:57:51.536Z,34.75
2023-03-29T05:00:59.504Z,53.00
2023-03-29T05:04:12.982Z,18.50
2023-03-29T05:07:27.716Z,43.00
2023-03-29T05:10:33.596Z,61.75
2023-03-29T05:13:37.880Z,74.50
2023-03-29T05:16:42.882Z,116.67
2023-03-29T05:19:48.147Z,113.33
2023-03-29T05:23:03.597Z,242.75
2023-03-29T05:26:35.650Z,157.67
2023-03-29T05:29:41.421Z,225.25
2023-03-29T05:33:00.505Z,265.25
2023-03-29T05:36:09.535Z,229.50
2023-03-29T05:39:18.965Z,158.67
2023-03-29T05:42:28.550Z,214.25
2023-03-29T05:45:36.263Z,245.25
2023-03-29T05:49:03.621Z,190.25
2023-03-29T05:52:26.823Z,263.50
2023-03-29T05:55:31.164Z,184.75
2023-03-29T05:59:01.401Z,101.00
2023-03-29T06:02:07.016Z,80.75
2023-03-29T06:05:16.223Z,86.25
2023-03-29T06:08:34.225Z,46.25
2023-03-29T06:12:01.987Z,19.50
2023-03-29T06:15:16.731Z,24.75
2023-03-29T06:18:25.353Z,17.00
2023-03-29T06:21:29.512Z,15.00
2023-03-29T06:24:36.900Z,17.75
2023-03-29T06:28:52.200Z,49.00
2023-03-29T06:31:58.856Z,6.25
2023-03-29T06:36:38.740Z,8.25
2023-03-29T06:40:14.696Z,8.00
2023-03-29T06:43:21.302Z,13.75
2023-03-29T06:46:43.138Z,12.75
2023-03-29T06:49:59.707Z,10.00
2023-03-29T06:53:18.075Z,23.50
2023-03-29T07:00:45.942Z,11.25
2023-03-29T07:08:15.615Z,8.00
2023-03-29T07:11:36.576Z,10.50
2023-03-29T07:19:09.727Z,8.50
2023-03-29T07:27:06.041Z,17.25
2023-03-29T07:30:16.918Z,31.00
2023-03-29T07:33:25.884Z,15.75
2023-03-29T07:36:51.720Z,8.25
2023-03-29T07:39:59.804Z,11.50
2023-03-29T07:43:38.011Z,12.25
2023-03-29T07:46:47.589Z,7.75
2023-03-29T07:49:52.593Z,22.75
2023-03-29T07:53:38.740Z,10.00
2023-03-29T07:57:37.178Z,9.00
2023-03-29T08:09:17.218Z,21.25
2023-03-29T08:12:41.134Z,7.25
2023-03-29T08:15:53.737Z,64.50
2023-03-29T08:19:09.555Z,12.50
2023-03-29T08:22:54.291Z,11.75
2023-03-29T08:26:24.252Z,13.75
2023-03-29T08:29:29.481Z,18.50
2023-03-29T08:32:36.893Z,9.00
2023-03-29T08:35:46.865Z,13.50
2023-03-29T08:38:58.603Z,6.75
2023-03-29T08:42:21.260Z,17.50
2023-03-29T08:45:35.621Z,16.25
2023-03-29T08:48:46.848Z,14.25
2023-03-29T08:51:59.752Z,23.25
2023-03-29T08:55:09.555Z,25.00
2023-03-29T08:58:36.233Z,23.50
2023-03-29T09:01:46.783Z,16.00
2023-03-29T09:05:03.278Z,12.25
2023-03-29T09:08:25.026Z,36.00
2023-03-29T09:11:44.890Z,7.25
2023-03-29T09:15:12.314Z,10.75
2023-03-29T09:18:34.278Z,6.75
2023-03-29T09:21:47.950Z,8.00
2023-03-29T09:25:07.472Z,9.00
2023-03-29T09:28:20.499Z,16.50
2023-03-29T09:31:35.415Z,7.75
2023-03-29T09:34:46.258Z,15.00
2023-03-29T09:38:01.670Z,21.50
2023-03-29T09:41:20.320Z,16.50
2023-03-29T09:44:31.260Z,14.00
2023-03-29T09:47:47.286Z,14.50
2023-03-29T09:50:53.344Z,14.75
2023-03-29T09:54:01.217Z,12.00
2023-03-29T09:57:33.629Z,21.50
2023-03-29T10:00:49.301Z,21.25
2023-03-29T10:03:54.701Z,13.50
2023-03-29T10:07:01.567Z,6.00
2023-03-29T10:10:11.977Z,14.75
2023-03-29T10:13:24.590Z,8.25
2023-03-29T10:16:32.021Z,7.50
2023-03-29T10:19:40.132Z,9.00
2023-03-29T10:22:51.282Z,16.25
2023-03-29T10:25:58.015Z,14.75
2023-03-29T10:29:06.398Z,22.25
2023-03-29T10:32:20.108Z,25.50
2023-03-29T10:35:30.624Z,7.00
2023-03-29T10:38:37.750Z,5.50
2023-03-29T10:41:45.127Z,6.75
2023-03-29T10:44:55.724Z,10.00
2023-03-29T10:48:00.955Z,68.50
2023-03-29T10:51:07.795Z,34.75
2023-03-29T10:54:16.173Z,14.50
2023-03-29T10:57:35.621Z,19.50
2023-03-29T11:00:51.316Z,10.25
2023-03-29T11:04:11.520Z,2.00
2023-03-29T11:07:28.885Z,13.00
2023-03-29T11:10:44.969Z,6.75
2023-03-29T11:14:01.650Z,5.00
2023-03-29T11:17:20.786Z,8.00
2023-03-29T11:20:38.007Z,6.25
2023-03-29T11:23:51.437Z,25.25
2023-03-29T11:27:11.330Z,28.75
2023-03-29T11:30:27.368Z,23.25
2023-03-29T11:33:43.276Z,23.00
2023-03-29T11:36:54.221Z,18.00
2023-03-29T11:40:10.171Z,6.50
2023-03-29T11:43:20.696Z,16.25
2023-03-29T11:46:36.144Z,19.25
2023-03-29T11:49:49.334Z,13.25
2023-03-29T11:52:57.883Z,4.75
2023-03-29T11:56:11.090Z,7.00
2023-03-29T11:59:20.036Z,14.50
2023-03-29T12:02:36.896Z,17.25
2023-03-29T12:05:48.471Z,9.00
2023-03-29T12:08:58.843Z,12.25
2023-03-29T12:12:10.456Z,9.50
2023-03-29T12:15:20.585Z,2.00
2023-03-29T12:18:32.199Z,9.75
2023-03-29T12:21:38.996Z,9.25
2023-03-29T12:24:46.127Z,12.25
2023-03-29T12:28:07.900Z,32.25
2023-03-29T12:31:26.278Z,17.00
2023-03-29T12:34:54.911Z,21.50
2023-03-29T12:38:24.489Z,12.25
2023-03-29T12:41:51.963Z,41.25
2023-03-29T12:45:39.039Z,54.25
2023-03-29T12:48:57.438Z,14.75
2023-03-29T13:00:51.237Z,7.50
2023-03-29T13:04:16.403Z,22.75
2023-03-29T13:07:34.056Z,37.25
2023-03-29T13:10:43.613Z,27.50
2023-03-29T13:13:52.533Z,2.00
2023-03-29T13:17:18.382Z,20.25
2023-03-29T13:20:43.510Z,14.50
2023-03-29T13:24:08.936Z,54.75
2023-03-29T13:27:30.545Z,8.00
2023-03-29T13:30:47.641Z,22.50
2023-03-29T13:34:04.381Z,21.75
2023-03-29T13:37:34.718Z,20.75
2023-03-29T13:41:04.723Z,21.75
2023-03-29T13:44:35.335Z,14.75
2023-03-29T13:47:58.767Z,8.00
2023-03-29T13:51:28.457Z,7.25
2023-03-29T13:54:40.553Z,49.00
2023-03-29T13:58:07.344Z,34.00
2023-03-29T14:01:20.589Z,7.00
2023-03-29T14:04:36.442Z,8.50
2023-03-29T14:07:46.853Z,5.25
2023-03-29T14:10:54.669Z,5.50
2023-03-29T14:14:08.526Z,7.00
2023-03-29T14:17:20.552Z,13.00
2023-03-29T14:20:25.597Z,5.75
2023-03-29T14:23:34.010Z,7.50
2023-03-29T14:26:38.534Z,16.25
2023-03-29T14:29:47.734Z,12.00
2023-03-29T14:32:52.686Z,8.75
2023-03-29T14:35:57.456Z,9.25
2023-03-29T14:39:05.814Z,9.00
2023-03-29T14:42:20.835Z,16.75
2023-03-29T14:45:30.512Z,8.25
2023-03-29T14:48:39.271Z,21.75
2023-03-29T14:51:47.349Z,38.50
2023-03-29T14:55:10.803Z,38.00
2023-03-29T14:58:22.866Z,1.25
2023-03-29T15:01:30.781Z,21.50
2023-03-29T15:04:37.867Z,17.75
2023-03-29T15:07:45.049Z,29.75
2023-03-29T15:10:52.261Z,13.00
2023-03-29T15:14:03.907Z,12.00
2023-03-29T15:17:43.114Z,15.00
2023-03-29T15:20:56.678Z,8.00
2023-03-29T15:24:02.125Z,19.75
2023-03-29T15:27:14.802Z,25.00
2023-03-29T15:30:21.792Z,14.50
2023-03-29T15:33:34.743Z,28.75
2023-03-29T15:36:42.904Z,21.50
2023-03-29T15:39:48.573Z,28.50
2023-03-29T15:46:23.967Z,8.50
2023-03-29T15:49:38.364Z,31.75
2023-03-29T15:52:43.401Z,9.00
2023-03-29T15:55:50.788Z,26.25
2023-03-29T15:58:55.252Z,9.00
2023-03-29T16:02:01.381Z,13.00
2023-03-29T16:05:11.250Z,12.00
2023-03-29T16:08:15.993Z,15.50
2023-03-29T16:11:22.517Z,13.00
2023-03-29T16:14:37.673Z,13.75
2023-03-29T16:17:57.634Z,12.25
2023-03-29T16:21:23.530Z,12.00
2023-03-29T16:28:31.583Z,20.75
2023-03-29T16:35:53.811Z,22.50
2023-03-29T16:38:59.925Z,21.00
2023-03-29T16:42:15.245Z,24.50
2023-03-29T16:45:27.487Z,22.00
2023-03-29T16:48:32.217Z,30.75
2023-03-29T16:51:36.517Z,67.75
2023-03-29T16:54:44.164Z,51.75
2023-03-29T16:57:51.008Z,28.00
2023-03-29T17:00:58.152Z,59.25
2023-03-29T17:04:11.085Z,42.50
2023-03-29T17:07:15.211Z,30.00
2023-03-29T17:10:24.730Z,67.50
2023-03-29T17:13:32.029Z,75.25
2023-03-29T17:16:38.427Z,58.50
2023-03-29T17:19:44.268Z,65.50
2023-03-29T17:22:52.730Z,25.00
2023-03-29T17:26:01.627Z,55.75
2023-03-29T17:29:08.693Z,68.25
2023-03-29T17:32:13.344Z,43.75
2023-03-29T17:35:18.990Z,79.25
2023-03-29T17:38:27.177Z,72.75
2023-03-29T17:41:36.369Z,52.50
2023-03-29T17:44:41.541Z,67.50
2023-03-29T17:47:46.142Z,75.25
2023-03-29T17:50:50.936Z,63.75
2023-03-29T17:53:57.236Z,34.50
2023-03-29T17:57:04.741Z,56.00
2023-03-29T18:00:12.880Z,63.75
2023-03-29T18:03:19.528Z,40.00
2023-03-29T18:06:23.991Z,76.25
2023-03-29T18:09:30.631Z,120.67
2023-03-29T18:12:38.901Z,89.00
2023-03-29T18:15:46.541Z,69.00
2023-03-29T18:18:52.502Z,76.00
2023-03-29T18:22:00.138Z,82.50
2023-03-29T18:25:09.570Z,109.33
2023-03-29T18:28:16.410Z,100.00
2023-03-29T18:31:29.007Z,144.33
2023-03-29T18:34:35.048Z,92.50
2023-03-29T18:37:40.588Z,107.67
2023-03-29T18:40:46.253Z,61.50
2023-03-29T18:43:57.777Z,72.50
2023-03-29T18:47:05.234Z,70.50
2023-03-29T18:50:12.844Z,58.50
2023-03-29T18:53:29.023Z,71.25
2023-03-29T18:56:42.191Z,67.25
2023-03-29T19:00:12.827Z,45.00
2023-03-29T19:03:17.296Z,66.50
2023-03-29T19:06:22.014Z,60.00
2023-03-29T19:09:30.602Z,42.00
2023-03-29T19:12:37.401Z,79.50
2023-03-29T19:15:45.782Z,240.75
2023-03-29T19:18:51.929Z,114.67
2023-03-29T19:22:02.369Z,54.75
2023-03-29T19:25:14.047Z,37.00
2023-03-29T19:31:49.657Z,34.75
2023-03-29T19:35:10.972Z,45.00
2023-03-29T19:39:02.507Z,35.00
2023-03-29T19:42:09.744Z,18.50
2023-03-29T19:45:13.692Z,22.00
2023-03-29T19:48:23.938Z,20.25
2023-03-29T19:51:28.951Z,26.25
2023-03-29T19:54:33.024Z,17.00
2023-03-29T19:57:42.805Z,19.50
2023-03-29T20:00:47.241Z,20.50
2023-03-29T20:03:52.863Z,18.75
2023-03-29T20:07:02.165Z,18.50
2023-03-29T20:10:06.862Z,26.50
2023-03-29T20:13:11.579Z,29.00
2023-03-29T20:16:17.322Z,38.25
2023-03-29T20:19:36.724Z,30.25
2023-03-29T20:22:45.592Z,41.00
2023-03-29T20:25:50.955Z,60.00
2023-03-29T20:28:55.634Z,36.50
2023-03-29T20:32:00.230Z,35.50
2023-03-29T20:35:21.489Z,22.50
2023-03-29T20:38:27.916Z,22.50
2023-03-29T20:41:35.907Z,23.00
2023-03-29T20:44:40.420Z,23.00
2023-03-29T20:47:50.613Z,22.50
2023-03-29T20:51:04.701Z,22.00
2023-03-29T20:54:11.538Z,28.25
2023-03-29T20:57:18.102Z,20.50
2023-03-29T21:00:25.135Z,32.75
2023-03-29T21:03:29.674Z,29.25
2023-03-29T21:06:40.120Z,40.00
2023-03-29T21:09:48.480Z,41.50
2023-03-29T21:12:54.495Z,50.25
2023-03-29T21:15:58.816Z,50.75
2023-03-29T21:19:02.965Z,53.50
2023-03-29T21:22:09.080Z,46.00
2023-03-29T21:25:15.675Z,49.75
2023-03-29T21:28:22.545Z,44.00
2023-03-29T21:31:28.411Z,32.25
2023-03-29T21:34:32.429Z,63.75
2023-03-29T21:37:37.625Z,51.25
2023-03-29T21:40:41.746Z,70.50
2023-03-29T21:43:47.272Z,88.50
2023-03-29T21:46:56.126Z,87.50
2023-03-29T21:50:01.239Z,80.75
2023-03-29T21:53:08.781Z,79.00
2023-03-29T21:56:16.257Z,77.00
2023-03-29T21:59:20.745Z,86.00
2023-03-29T22:02:26.034Z,48.75
2023-03-29T22:05:30.833Z,69.75
2023-03-29T22:08:38.997Z,59.75
2023-03-29T22:11:46.129Z,68.75
2023-03-29T22:14:50.383Z,50.75
2023-03-29T22:17:57.878Z,41.50
2023-03-29T22:21:08.897Z,50.75
2023-03-29T22:24:14.918Z,51.25
2023-03-29T22:27:19.298Z,59.75
2023-03-29T22:30:23.800Z,42.75
2023-03-29T22:33:27.420Z,43.75
2023-03-29T22:36:33.250Z,62.00
2023-03-29T22:39:39.108Z,43.25
2023-03-29T22:42:43.334Z,40.50
2023-03-29T22:45:47.170Z,36.50
2023-03-29T22:48:53.392Z,49.25
2023-03-29T22:51:58.177Z,55.75
2023-03-29T22:55:03.619Z,32.00
2023-03-29T22:58:07.446Z,40.00
2023-03-29T23:01:12.117Z,35.50
2023-03-29T23:04:16.427Z,33.50
2023-03-29T23:07:21.471Z,38.50
2023-03-29T23:10:29.098Z,44.50
2023-03-29T23:13:35.493Z,69.50
2023-03-29T23:16:42.434Z,65.50
2023-03-29T23:19:46.769Z,72.50
2023-03-29T23:22:50.607Z,64.50
2023-03-29T23:25:58.002Z,54.00
2023-03-29T23:29:02.500Z,36.50
2023-03-29T23:32:06.977Z,37.25
2023-03-29T23:35:11.382Z,42.00
2023-03-29T23:38:15.556Z,48.50
2023-03-29T23:41:21.073Z,41.50
2023-03-29T23:44:27.896Z,39.75
2023-03-29T23:47:31.914Z,42.75
2023-03-29T23:50:36.046Z,41.00
2023-03-29T23:53:40.560Z,47.75
2023-03-29T23:56:46.898Z,42.00
2023-03-29T23:59:52.856Z,40.25
